createdAt,value
2022-08-02T00:00:09.258Z,17.46
2022-08-02T00:02:37.389Z,17.44
2022-08-02T00:05:05.129Z,17.40
2022-08-02T00:07:34.206Z,17.36
2022-08-02T00:10:04.760Z,17.32
2022-08-02T00:12:32.907Z,17.30
2022-08-02T00:15:00.299Z,17.25
2022-08-02T00:17:27.414Z,17.23
2022-08-02T00:19:54.149Z,17.19
2022-08-02T00:22:21.527Z,17.13
2022-08-02T00:24:48.122Z,17.09
2022-08-02T00:27:15.154Z,17.06
2022-08-02T00:29:42.640Z,17.02
2022-08-02T00:32:21.887Z,16.95
2022-08-02T00:34:49.081Z,16.94
2022-08-02T00:37:15.820Z,16.87
2022-08-02T00:39:43.406Z,16.81
2022-08-02T00:42:11.418Z,16.77
2022-08-02T00:44:40.371Z,16.72
2022-08-02T00:47:07.589Z,16.66
2022-08-02T00:49:34.345Z,16.66
2022-08-02T00:52:01.918Z,16.64
2022-08-02T00:54:28.405Z,16.59
2022-08-02T00:56:54.880Z,16.54
2022-08-02T00:59:21.460Z,16.51
2022-08-02T01:01:56.319Z,16.47
2022-08-02T01:04:31.062Z,16.45
2022-08-02T01:07:00.455Z,16.41
2022-08-02T01:09:27.894Z,16.37
2022-08-02T01:11:56.819Z,16.35
2022-08-02T01:14:24.725Z,16.32
2022-08-02T01:17:00.580Z,16.30
2022-08-02T01:19:43.021Z,16.27
2022-08-02T01:22:39.472Z,16.22
2022-08-02T01:25:34.672Z,16.19
2022-08-02T01:28:27.858Z,16.18
2022-08-02T01:31:00.679Z,16.15
2022-08-02T01:33:33.109Z,16.11
2022-08-02T01:36:00.888Z,16.13
2022-08-02T01:38:40.544Z,16.09
2022-08-02T01:41:09.919Z,16.06
2022-08-02T01:43:38.359Z,16.06
2022-08-02T01:46:05.598Z,16.02
2022-08-02T01:48:34.112Z,15.97
2022-08-02T01:51:03.077Z,15.92
2022-08-02T01:53:30.987Z,15.86
2022-08-02T01:55:59.598Z,15.83
2022-08-02T01:58:30.595Z,15.82
2022-08-02T02:00:58.700Z,15.82
2022-08-02T02:03:26.754Z,15.77
2022-08-02T02:05:58.695Z,15.72
2022-08-02T02:08:29.434Z,15.72
2022-08-02T02:10:57.412Z,15.74
2022-08-02T02:13:44.732Z,15.72
2022-08-02T02:16:12.099Z,15.72
2022-08-02T02:18:40.630Z,15.77
2022-08-02T02:21:07.640Z,15.85
2022-08-02T02:23:35.749Z,15.94
2022-08-02T02:26:05.436Z,15.94
2022-08-02T02:28:35.357Z,15.91
2022-08-02T02:31:10.530Z,15.92
2022-08-02T02:33:40.513Z,15.90
2022-08-02T02:36:10.561Z,15.89
2022-08-02T02:38:38.032Z,15.86
2022-08-02T02:41:06.695Z,15.82
2022-08-02T02:43:34.406Z,15.78
2022-08-02T02:46:03.347Z,15.72
2022-08-02T02:48:30.477Z,15.70
2022-08-02T02:50:57.552Z,15.69
2022-08-02T02:53:24.177Z,15.66
2022-08-02T02:56:02.592Z,15.64
2022-08-02T02:58:30.464Z,15.66
2022-08-02T03:01:15.658Z,15.66
2022-08-02T03:03:46.684Z,15.67
2022-08-02T03:06:15.724Z,15.65
2022-08-02T03:08:43.130Z,15.65
2022-08-02T03:11:10.079Z,15.66
2022-08-02T03:13:37.878Z,15.68
2022-08-02T03:16:05.104Z,15.68
2022-08-02T03:18:38.522Z,15.68
2022-08-02T03:21:06.900Z,15.70
2022-08-02T03:23:33.957Z,15.81
2022-08-02T03:26:01.138Z,15.77
2022-08-02T03:28:27.720Z,15.90
2022-08-02T03:30:54.223Z,16.01
2022-08-02T03:33:22.319Z,15.98
2022-08-02T03:35:50.330Z,16.13
2022-08-02T03:38:18.036Z,16.05
2022-08-02T03:40:45.632Z,16.00
2022-08-02T03:43:12.399Z,16.00
2022-08-02T03:45:40.119Z,15.98
2022-08-02T03:48:34.748Z,15.94
2022-08-02T03:50:55.458Z,15.90
2022-08-02T03:53:22.711Z,15.92
2022-08-02T03:55:49.556Z,15.91
2022-08-02T03:58:23.741Z,15.93
2022-08-02T04:00:51.279Z,15.94
2022-08-02T04:03:19.876Z,15.96
2022-08-02T04:06:03.484Z,16.02
2022-08-02T04:08:36.839Z,16.06
2022-08-02T04:11:23.911Z,16.12
2022-08-02T04:13:50.407Z,16.23
2022-08-02T04:16:21.733Z,16.32
2022-08-02T04:18:56.859Z,16.46
2022-08-02T04:21:26.073Z,16.59
2022-08-02T04:23:53.188Z,16.79
2022-08-02T04:26:26.766Z,17.03
2022-08-02T04:28:55.474Z,17.17
2022-08-02T04:31:22.488Z,17.31
2022-08-02T04:33:49.485Z,17.43
2022-08-02T04:36:15.939Z,17.55
2022-08-02T04:38:58.257Z,17.66
2022-08-02T04:41:37.169Z,17.80
2022-08-02T04:44:07.814Z,17.90
2022-08-02T04:46:35.877Z,17.97
2022-08-02T04:49:02.522Z,18.07
2022-08-02T04:51:38.285Z,18.06
2022-08-02T04:54:09.017Z,18.14
2022-08-02T04:56:37.922Z,18.26
2022-08-02T04:59:05.578Z,18.30
2022-08-02T05:01:32.401Z,18.61
2022-08-02T05:03:59.031Z,18.82
2022-08-02T05:06:25.468Z,18.78
2022-08-02T05:08:52.841Z,18.82
2022-08-02T05:11:19.943Z,18.76
2022-08-02T05:13:58.039Z,18.94
2022-08-02T05:16:31.821Z,19.20
2022-08-02T05:19:00.116Z,19.27
2022-08-02T05:21:26.772Z,19.30
2022-08-02T05:23:53.253Z,19.07
2022-08-02T05:26:19.803Z,19.16
2022-08-02T05:28:46.197Z,19.19
2022-08-02T05:31:13.364Z,19.16
2022-08-02T05:33:40.496Z,19.30
2022-08-02T05:36:09.237Z,19.59
2022-08-02T05:38:36.926Z,20.11
2022-08-02T05:41:04.509Z,20.08
2022-08-02T05:43:30.996Z,20.25
2022-08-02T05:45:57.685Z,20.33
2022-08-02T05:48:29.282Z,20.56
2022-08-02T05:51:03.897Z,20.64
2022-08-02T05:53:47.512Z,20.80
2022-08-02T05:56:20.786Z,20.59
2022-08-02T05:58:57.156Z,20.65
2022-08-02T06:01:32.197Z,20.65
2022-08-02T06:04:00.260Z,20.55
2022-08-02T06:06:27.073Z,20.79
2022-08-02T06:09:00.669Z,20.52
2022-08-02T06:11:35.666Z,20.47
2022-08-02T06:14:03.890Z,20.47
2022-08-02T06:16:32.658Z,20.73
2022-08-02T06:19:00.478Z,20.76
2022-08-02T06:22:33.088Z,21.00
2022-08-02T06:24:20.227Z,21.42
2022-08-02T06:26:47.059Z,21.98
2022-08-02T06:29:14.040Z,22.47
2022-08-02T06:31:42.090Z,23.11
2022-08-02T06:34:11.777Z,23.95
2022-08-02T06:36:47.639Z,24.67
2022-08-02T06:39:52.481Z,25.19
2022-08-02T06:42:27.577Z,25.71
2022-08-02T06:45:20.424Z,26.11
2022-08-02T06:47:51.088Z,26.41
2022-08-02T06:50:23.733Z,26.90
2022-08-02T06:52:54.081Z,26.76
2022-08-02T06:55:23.973Z,27.26
2022-08-02T06:57:53.802Z,28.58
2022-08-02T07:00:34.227Z,27.09
2022-08-02T07:03:04.714Z,29.70
2022-08-02T07:05:31.761Z,30.75
2022-08-02T07:07:58.516Z,32.03
2022-08-02T07:10:27.734Z,30.63
2022-08-02T07:12:58.288Z,32.95
2022-08-02T07:15:28.763Z,33.43
2022-08-02T07:17:59.476Z,32.64
2022-08-02T07:20:26.328Z,34.29
2022-08-02T07:22:53.348Z,33.59
2022-08-02T07:25:20.491Z,31.57
2022-08-02T07:27:50.295Z,31.65
2022-08-02T07:30:19.790Z,32.39
2022-08-02T07:32:47.808Z,32.47
2022-08-02T07:35:14.777Z,33.97
2022-08-02T07:37:55.483Z,35.36
2022-08-02T07:40:28.525Z,36.19
2022-08-02T07:43:03.086Z,35.99
2022-08-02T07:45:31.444Z,34.70
2022-08-02T07:48:02.055Z,34.33
2022-08-02T07:50:28.649Z,34.64
2022-08-02T07:52:57.633Z,34.07
2022-08-02T07:55:37.957Z,34.39
2022-08-02T07:58:07.147Z,36.13
2022-08-02T08:00:45.484Z,36.05
2022-08-02T08:03:14.139Z,34.82
2022-08-02T08:05:41.306Z,35.75
2022-08-02T08:08:13.815Z,36.72
2022-08-02T08:10:43.488Z,36.26
2022-08-02T08:13:13.568Z,37.00
2022-08-02T08:15:42.448Z,37.44
2022-08-02T08:18:21.653Z,37.94
2022-08-02T08:20:48.751Z,39.23
2022-08-02T08:23:15.501Z,38.28
2022-08-02T08:25:42.321Z,38.76
2022-08-02T08:28:11.493Z,35.89
2022-08-02T08:30:40.584Z,33.75
2022-08-02T08:33:08.050Z,36.52
2022-08-02T08:35:35.462Z,37.33
2022-08-02T08:38:07.720Z,38.58
2022-08-02T08:40:35.437Z,36.58
2022-08-02T08:43:07.726Z,37.18
2022-08-02T08:45:34.666Z,37.22
2022-08-02T08:48:07.308Z,37.86
2022-08-02T08:50:35.700Z,36.78
2022-08-02T08:53:13.710Z,38.00
2022-08-02T08:55:50.724Z,36.63
2022-08-02T08:58:20.671Z,38.45
2022-08-02T09:00:47.726Z,36.45
2022-08-02T09:03:14.455Z,35.95
2022-08-02T09:05:47.127Z,36.66
2022-08-02T09:08:18.235Z,35.26
2022-08-02T09:10:55.838Z,35.92
2022-08-02T09:13:45.179Z,34.28
2022-08-02T09:16:17.393Z,34.27
2022-08-02T09:18:46.448Z,36.00
2022-08-02T09:21:21.351Z,36.83
2022-08-02T09:24:01.615Z,36.04
2022-08-02T09:26:30.897Z,37.99
2022-08-02T09:29:27.444Z,39.27
2022-08-02T09:32:07.348Z,40.51
2022-08-02T09:35:06.087Z,38.19
2022-08-02T09:37:42.047Z,38.76
2022-08-02T09:40:42.258Z,37.66
2022-08-02T09:43:02.973Z,38.94
2022-08-02T09:45:37.313Z,38.49
2022-08-02T09:48:12.350Z,38.34
2022-08-02T09:50:42.766Z,37.51
2022-08-02T09:53:21.260Z,37.10
2022-08-02T09:55:57.288Z,36.81
2022-08-02T09:58:24.036Z,37.06
2022-08-02T10:00:59.115Z,36.79
2022-08-02T10:03:34.935Z,37.62
2022-08-02T10:06:03.070Z,37.73
2022-08-02T10:08:32.982Z,37.74
2022-08-02T10:11:01.126Z,39.49
2022-08-02T10:13:35.921Z,40.24
2022-08-02T10:16:04.257Z,41.10
2022-08-02T10:18:41.144Z,39.47
2022-08-02T10:21:24.417Z,39.31
2022-08-02T10:23:55.953Z,40.84
2022-08-02T10:26:23.725Z,39.08
2022-08-02T10:28:52.527Z,38.98
2022-08-02T10:31:24.622Z,38.53
2022-08-02T10:33:53.074Z,38.80
2022-08-02T10:36:25.865Z,38.79
2022-08-02T10:38:54.397Z,36.86
2022-08-02T10:41:47.458Z,38.45
2022-08-02T10:44:40.347Z,40.57
2022-08-02T10:47:27.411Z,40.56
2022-08-02T10:49:56.286Z,41.13
2022-08-02T10:52:24.427Z,40.59
2022-08-02T10:55:22.429Z,40.86
2022-08-02T10:58:19.322Z,38.46
2022-08-02T11:00:48.542Z,37.31
2022-08-02T11:03:39.287Z,38.24
2022-08-02T11:06:26.174Z,38.20
2022-08-02T11:09:33.801Z,36.52
2022-08-02T11:12:12.369Z,38.87
2022-08-02T11:14:43.948Z,39.22
2022-08-02T11:17:14.213Z,40.99
2022-08-02T11:20:11.249Z,39.49
2022-08-02T11:22:42.401Z,37.93
2022-08-02T11:25:24.136Z,35.78
2022-08-02T11:28:03.617Z,35.88
2022-08-02T11:30:30.037Z,37.02
2022-08-02T11:32:59.989Z,38.47
2022-08-02T11:35:38.045Z,37.99
2022-08-02T11:38:29.968Z,38.88
2022-08-02T11:40:57.484Z,38.29
2022-08-02T11:43:28.148Z,37.22
2022-08-02T11:45:57.984Z,36.78
2022-08-02T11:48:37.281Z,37.16
2022-08-02T11:51:07.673Z,37.17
2022-08-02T11:53:41.862Z,36.69
2022-08-02T11:56:08.923Z,37.30
2022-08-02T11:58:39.275Z,37.50
2022-08-02T12:01:13.525Z,37.97
2022-08-02T12:03:43.117Z,38.56
2022-08-02T12:06:16.198Z,37.43
2022-08-02T12:09:17.905Z,36.78
2022-08-02T12:11:51.043Z,35.90
2022-08-02T12:14:20.427Z,34.94
2022-08-02T12:17:09.663Z,34.98
2022-08-02T12:19:36.750Z,35.64
2022-08-02T12:22:08.617Z,36.49
2022-08-02T12:24:35.949Z,37.23
2022-08-02T12:27:02.779Z,37.88
2022-08-02T12:29:55.748Z,37.69
2022-08-02T12:32:25.475Z,38.22
2022-08-02T12:35:26.328Z,37.71
2022-08-02T12:37:57.872Z,37.09
2022-08-02T12:40:34.796Z,37.78
2022-08-02T12:43:21.922Z,37.94
2022-08-02T12:45:54.445Z,37.96
2022-08-02T12:48:45.167Z,37.43
2022-08-02T12:51:50.747Z,36.82
2022-08-02T12:54:18.184Z,35.67
2022-08-02T12:56:45.448Z,35.54
2022-08-02T12:59:12.740Z,35.98
2022-08-02T13:01:45.706Z,36.06
2022-08-02T13:04:14.115Z,36.04
2022-08-02T13:06:45.864Z,36.39
2022-08-02T13:09:19.454Z,36.94
2022-08-02T13:11:46.458Z,37.35
2022-08-02T13:14:21.304Z,36.84
2022-08-02T13:16:54.536Z,36.43
2022-08-02T13:19:23.044Z,36.35
2022-08-02T13:22:01.906Z,35.87
2022-08-02T13:24:39.892Z,36.45
2022-08-02T13:27:30.497Z,36.40
2022-08-02T13:30:00.765Z,36.47
2022-08-02T13:32:30.967Z,36.05
2022-08-02T13:35:01.069Z,34.78
2022-08-02T13:37:33.063Z,35.67
2022-08-02T13:40:25.041Z,35.42
2022-08-02T13:42:53.141Z,35.57
2022-08-02T13:45:27.238Z,36.07
2022-08-02T13:48:04.245Z,35.46
2022-08-02T13:50:33.579Z,35.77
2022-08-02T13:53:00.216Z,36.34
2022-08-02T13:55:38.404Z,36.34
2022-08-02T13:58:14.044Z,36.28
2022-08-02T14:00:46.261Z,36.61
2022-08-02T14:03:13.051Z,36.73
2022-08-02T14:05:49.071Z,35.86
2022-08-02T14:08:21.339Z,36.29
2022-08-02T14:10:48.989Z,36.44
2022-08-02T14:13:21.266Z,35.79
2022-08-02T14:15:48.079Z,35.61
2022-08-02T14:21:03.691Z,35.48
2022-08-02T14:23:49.979Z,35.30
2022-08-02T14:26:26.805Z,34.84
2022-08-02T14:28:54.721Z,34.38
2022-08-02T14:31:21.305Z,34.00
2022-08-02T14:33:50.582Z,33.97
2022-08-02T14:36:27.465Z,34.53
2022-08-02T14:39:08.386Z,34.76
2022-08-02T14:41:59.645Z,35.19
2022-08-02T14:44:31.488Z,35.51
2022-08-02T14:46:58.247Z,34.91
2022-08-02T14:49:27.653Z,34.51
2022-08-02T14:51:55.192Z,34.91
2022-08-02T14:54:32.629Z,35.12
2022-08-02T14:57:02.696Z,34.62
2022-08-02T14:59:31.930Z,34.82
2022-08-02T15:01:59.646Z,34.89
2022-08-02T15:04:43.372Z,34.94
2022-08-02T15:07:13.771Z,34.75
2022-08-02T15:09:40.972Z,34.85
2022-08-02T15:12:18.474Z,34.45
2022-08-02T15:14:55.263Z,34.29
2022-08-02T15:17:31.893Z,34.37
2022-08-02T15:20:02.005Z,34.36
2022-08-02T15:22:41.046Z,33.72
2022-08-02T15:25:16.416Z,33.10
2022-08-02T15:27:48.817Z,33.13
2022-08-02T15:30:15.912Z,32.67
2022-08-02T15:32:53.231Z,32.78
2022-08-02T15:35:26.516Z,32.64
2022-08-02T15:37:55.869Z,32.67
2022-08-02T15:40:30.774Z,32.66
2022-08-02T15:43:00.261Z,32.65
2022-08-02T15:45:27.942Z,32.71
2022-08-02T15:47:58.340Z,32.50
2022-08-02T15:50:27.675Z,32.51
2022-08-02T15:52:54.213Z,32.61
2022-08-02T15:55:20.874Z,32.76
2022-08-02T15:57:47.555Z,32.81
2022-08-02T16:00:41.846Z,32.83
2022-08-02T16:03:24.626Z,32.98
2022-08-02T16:05:55.037Z,33.09
2022-08-02T16:08:54.710Z,33.02
2022-08-02T16:11:31.309Z,32.59
2022-08-02T16:14:14.812Z,32.74
2022-08-02T16:17:51.279Z,32.77
2022-08-02T16:21:11.937Z,32.78
2022-08-02T16:24:20.161Z,32.69
2022-08-02T16:27:03.930Z,32.73
2022-08-02T16:29:33.773Z,32.68
2022-08-02T16:32:03.989Z,32.54
2022-08-02T16:34:45.081Z,32.65
2022-08-02T16:37:21.820Z,32.67
2022-08-02T16:39:49.209Z,32.67
2022-08-02T16:42:25.655Z,32.77
2022-08-02T16:44:53.500Z,32.74
2022-08-02T16:47:21.273Z,32.68
2022-08-02T16:52:58.046Z,32.39
2022-08-02T16:55:25.210Z,32.25
2022-08-02T16:57:51.624Z,32.19
2022-08-02T17:00:23.425Z,32.09
2022-08-02T17:02:49.928Z,32.03
2022-08-02T17:05:17.486Z,31.95
2022-08-02T17:08:16.645Z,31.83
2022-08-02T17:10:31.207Z,31.70
2022-08-02T17:12:58.127Z,31.60
2022-08-02T17:16:08.306Z,31.44
2022-08-02T17:18:26.554Z,31.34
2022-08-02T17:20:54.375Z,31.30
2022-08-02T17:23:20.847Z,31.11
2022-08-02T17:25:52.365Z,30.95
2022-08-02T17:28:19.868Z,30.75
2022-08-02T17:30:46.295Z,30.66
2022-08-02T17:33:13.074Z,30.49
2022-08-02T17:35:52.005Z,30.25
2022-08-02T17:38:26.498Z,30.16
2022-08-02T17:40:57.043Z,30.02
2022-08-02T17:43:29.158Z,29.84
2022-08-02T17:45:59.924Z,29.78
2022-08-02T17:48:49.103Z,29.70
2022-08-02T17:51:15.590Z,29.60
2022-08-02T17:54:01.987Z,29.51
2022-08-02T17:56:30.923Z,29.42
2022-08-02T17:59:20.185Z,29.38
2022-08-02T18:01:52.470Z,29.31
2022-08-02T18:04:19.644Z,29.23
2022-08-02T18:06:58.469Z,29.09
2022-08-02T18:09:28.476Z,29.01
2022-08-02T18:11:57.377Z,28.89
2022-08-02T18:14:24.435Z,28.82
2022-08-02T18:16:53.196Z,28.76
2022-08-02T18:19:19.888Z,28.69
2022-08-02T18:21:48.069Z,28.59
2022-08-02T18:24:15.803Z,28.48
2022-08-02T18:26:43.380Z,28.34
2022-08-02T18:29:10.866Z,28.26
2022-08-02T18:31:40.223Z,28.14
2022-08-02T18:34:17.480Z,28.02
2022-08-02T18:36:47.055Z,27.85
2022-08-02T18:39:32.963Z,27.70
2022-08-02T18:41:59.815Z,27.59
2022-08-02T18:44:29.979Z,27.44
2022-08-02T18:46:57.524Z,27.31
2022-08-02T18:49:30.065Z,27.20
2022-08-02T18:52:13.024Z,27.05
2022-08-02T18:54:39.726Z,26.94
2022-08-02T18:57:59.665Z,26.84
2022-08-02T18:59:56.134Z,26.82
2022-08-02T19:02:24.804Z,26.71
2022-08-02T19:04:51.906Z,26.57
2022-08-02T19:07:22.585Z,26.48
2022-08-02T19:09:49.736Z,26.38
2022-08-02T19:12:28.436Z,26.32
2022-08-02T19:14:57.384Z,26.19
2022-08-02T19:17:54.976Z,26.10
2022-08-02T19:20:19.237Z,26.04
2022-08-02T19:22:46.936Z,25.92
2022-08-02T19:25:21.537Z,25.90
2022-08-02T19:27:55.347Z,25.79
2022-08-02T19:30:22.395Z,25.69
2022-08-02T19:32:59.367Z,25.61
2022-08-02T19:36:02.001Z,25.52
2022-08-02T19:38:32.349Z,25.43
2022-08-02T19:40:59.659Z,25.35
2022-08-02T19:44:26.158Z,25.27
2022-08-02T19:46:43.844Z,25.21
2022-08-02T19:49:20.258Z,25.10
2022-08-02T19:51:57.453Z,25.06
2022-08-02T19:54:54.248Z,24.96
2022-08-02T19:57:17.004Z,24.87
2022-08-02T19:59:45.993Z,24.82
2022-08-02T20:02:15.719Z,24.76
2022-08-02T20:04:49.935Z,24.71
2022-08-02T20:07:49.788Z,24.65
2022-08-02T20:10:10.758Z,24.59
2022-08-02T20:12:38.698Z,24.57
2022-08-02T20:15:14.685Z,24.55
2022-08-02T20:17:47.686Z,24.53
2022-08-02T20:20:16.910Z,24.49
2022-08-02T20:23:33.342Z,24.52
2022-08-02T20:25:54.185Z,24.41
2022-08-02T20:28:21.934Z,24.36
2022-08-02T20:30:55.008Z,24.30
2022-08-02T20:33:23.347Z,24.20
2022-08-02T20:35:53.374Z,24.10
2022-08-02T20:38:25.003Z,23.98
2022-08-02T20:41:21.703Z,23.91
2022-08-02T20:43:50.977Z,23.85
2022-08-02T20:46:20.441Z,23.79
2022-08-02T20:48:50.399Z,23.78
2022-08-02T20:51:33.527Z,23.78
2022-08-02T20:54:03.084Z,23.79
2022-08-02T20:56:29.769Z,23.84
2022-08-02T20:59:04.173Z,23.80
2022-08-02T21:01:57.438Z,23.77
2022-08-02T21:04:25.000Z,23.67
2022-08-02T21:06:51.640Z,23.57
2022-08-02T21:09:18.364Z,23.51
2022-08-02T21:11:51.145Z,23.40
2022-08-02T21:14:20.396Z,23.32
2022-08-02T21:16:55.644Z,23.29
2022-08-02T21:19:22.597Z,23.28
2022-08-02T21:21:51.678Z,23.23
2022-08-02T21:24:18.626Z,23.17
2022-08-02T21:26:51.556Z,23.09
2022-08-02T21:29:19.140Z,23.12
2022-08-02T21:31:45.960Z,23.02
2022-08-02T21:34:27.250Z,22.94
2022-08-02T21:36:55.131Z,22.87
2022-08-02T21:39:21.943Z,22.81
2022-08-02T21:41:50.036Z,22.78
2022-08-02T21:44:19.325Z,22.74
2022-08-02T21:46:49.360Z,22.69
2022-08-02T21:49:20.192Z,22.63
2022-08-02T21:51:49.803Z,22.58
2022-08-02T21:54:21.478Z,22.52
2022-08-02T21:56:50.260Z,22.48
2022-08-02T21:59:25.368Z,22.45
2022-08-02T22:01:56.936Z,22.40
2022-08-02T22:04:25.783Z,22.39
2022-08-02T22:06:53.542Z,22.29
2022-08-02T22:09:44.308Z,22.23
2022-08-02T22:12:10.401Z,22.16
2022-08-02T22:14:43.359Z,22.13
2022-08-02T22:17:16.721Z,22.09
2022-08-02T22:19:53.477Z,22.03
2022-08-02T22:22:28.423Z,21.97
2022-08-02T22:24:56.517Z,21.95
2022-08-02T22:28:15.760Z,21.89
2022-08-02T22:30:11.258Z,21.84
2022-08-02T22:32:56.728Z,21.81
2022-08-02T22:35:24.873Z,21.74
2022-08-02T22:38:17.311Z,21.69
2022-08-02T22:40:38.586Z,21.66
2022-08-02T22:43:08.588Z,21.70
2022-08-02T22:45:37.896Z,21.63
2022-08-02T22:48:06.892Z,21.58
2022-08-02T22:50:34.058Z,21.54
2022-08-02T22:53:03.020Z,21.52
2022-08-02T22:55:32.106Z,21.52
2022-08-02T22:57:59.723Z,21.49
2022-08-02T22:58:48.967Z,32.44
2022-08-02T23:00:26.679Z,21.39
2022-08-02T23:02:54.064Z,21.32
2022-08-02T23:05:21.735Z,21.29
2022-08-02T23:07:48.412Z,21.23
2022-08-02T23:10:15.463Z,21.19
2022-08-02T23:12:42.228Z,21.17
2022-08-02T23:15:10.342Z,21.10
2022-08-02T23:17:56.287Z,21.06
2022-08-02T23:20:24.458Z,20.98
2022-08-02T23:22:51.378Z,20.95
2022-08-02T23:25:19.091Z,20.91
2022-08-02T23:27:50.544Z,20.82
2022-08-02T23:30:18.639Z,20.71
2022-08-02T23:32:46.766Z,20.61
2022-08-02T23:35:17.117Z,20.56
2022-08-02T23:37:59.298Z,20.49
2022-08-02T23:40:40.170Z,20.42
2022-08-02T23:43:13.995Z,20.42
2022-08-02T23:45:43.129Z,20.37
2022-08-02T23:48:10.642Z,20.32
2022-08-02T23:50:37.590Z,20.25
2022-08-02T23:53:04.340Z,20.22
2022-08-02T23:55:31.123Z,20.19
2022-08-02T23:57:57.794Z,20.16
